Chenzhou, China
Current Conditions -  °F | °C
As of 10:00 PM on Thursday 23 Oct 2014 (Local Time) from ZGHA Reporting Station
Haze Haze  
Wind Chill: 63°   Ceiling: Unl
Heat Index: 63°   Visibility: 2.8mi
Dew Point: 55°   Wind: 2mph
Humidity: 77%   Direction: 60°ENE
Pressure: 30.06"   Gusts: NA
Location:  25.8°N, 113.03°E
Report Text: ZGHA 231400Z 06001MPS 4500 BR NSC 17/13 Q1018 NOSIG
Loading
Personal Weather Stations






























Interactive Weather Map
Tropical Storm Tracking
New forecast layout! Learn more

10-Day Weather Forecast

Advertisements
Track Severe Weather on mobile